Time;durP1;ratioP1;P1;durP2;ratioP2;P2;SDS_P1;SDS_P2;PMS_P1;PMS_P2;Temp;Humidity;BMP_temperature;BMP_pressure;BME280_temperature;BME280_humidity;BME280_pressure;Samples;Min_cycle;Max_cycle;Signal;HPM_P1;HPM_P2
2021/05/08 00:00:41;;;;;;;7.47;5.20;;;;;;;5.72;66.38;98080.22;1824240;78;22224;-73
2021/05/08 00:03:09;;;;;;;8.33;4.95;;;;;;;5.70;65.93;98085.05;1820515;78;21507;-73
2021/05/08 00:05:36;;;;;;;7.40;4.78;;;;;;;5.73;65.88;98078.38;1824172;78;21108;-73
2021/05/08 00:08:03;;;;;;;7.58;5.50;;;;;;;5.74;66.18;98076.78;1820546;78;21554;-73
2021/05/08 00:10:29;;;;;;;10.55;4.70;;;;;;;5.74;66.07;98085.38;1824169;78;21182;-74
2021/05/08 00:12:55;;;;;;;9.15;5.10;;;;;;;5.79;66.17;98089.47;1820382;78;21504;-74
2021/05/08 00:15:21;;;;;;;6.85;4.55;;;;;;;5.79;66.22;98095.66;1824201;78;21035;-73
2021/05/08 00:17:47;;;;;;;7.47;4.22;;;;;;;5.85;66.01;98088.49;1820395;78;21003;-73
2021/05/08 00:20:16;;;;;;;8.20;4.83;;;;;;;5.86;65.83;98089.58;1824219;78;21101;-74
2021/05/08 00:22:42;;;;;;;7.87;5.07;;;;;;;5.92;65.72;98089.98;1820663;78;21149;-73
2021/05/08 00:25:10;;;;;;;9.13;5.75;;;;;;;5.97;65.46;98096.48;1824193;78;21035;-73
2021/05/08 00:27:36;;;;;;;9.33;5.25;;;;;;;5.85;65.24;98095.22;1820494;78;21122;-73
2021/05/08 00:30:05;;;;;;;7.20;5.97;;;;;;;5.83;65.02;98096.81;1824179;78;21157;-73
2021/05/08 00:32:31;;;;;;;8.60;5.95;;;;;;;5.80;65.04;98099.16;1820634;78;21087;-74
2021/05/08 00:34:57;;;;;;;6.85;4.72;;;;;;;5.80;65.14;98106.70;1824134;78;21257;-74
2021/05/08 00:37:23;;;;;;;7.72;4.90;;;;;;;5.82;65.16;98111.86;1820369;78;21106;-74
2021/05/08 00:39:50;;;;;;;6.53;4.80;;;;;;;5.78;64.64;98106.67;1824146;78;21039;-74
2021/05/08 00:42:16;;;;;;;8.03;5.08;;;;;;;5.75;65.80;98117.92;1820535;78;21020;-73
2021/05/08 00:44:43;;;;;;;8.85;5.25;;;;;;;5.73;64.55;98125.44;1796790;78;21087;-73
2021/05/08 00:47:11;;;;;;;6.92;5.03;;;;;;;5.71;64.21;98122.96;1820424;78;21496;-73
2021/05/08 00:49:41;;;;;;;7.55;4.92;;;;;;;5.69;64.29;98122.41;1824143;78;21110;-73
2021/05/08 00:52:07;;;;;;;6.62;4.87;;;;;;;5.65;64.08;98120.75;1820416;78;21030;-74
2021/05/08 00:54:33;;;;;;;6.90;3.90;;;;;;;5.65;64.05;98118.59;1824129;78;21075;-73
2021/05/08 00:57:00;;;;;;;6.78;4.37;;;;;;;5.64;64.06;98123.69;1820443;78;21031;-74
2021/05/08 00:59:27;;;;;;;6.05;3.52;;;;;;;5.65;63.95;98123.97;1813194;78;21520;-74
2021/05/08 01:01:53;;;;;;;6.42;3.83;;;;;;;5.62;63.86;98129.28;1790859;79;21118;-74
2021/05/08 01:04:19;;;;;;;8.40;3.92;;;;;;;5.55;63.89;98129.97;1802667;79;21048;-73
2021/05/08 01:06:45;;;;;;;4.30;2.87;;;;;;;5.56;64.06;98124.91;1790887;79;21093;-73
2021/05/08 01:09:11;;;;;;;5.40;3.55;;;;;;;5.59;64.42;98131.13;1802779;79;21386;-74
2021/05/08 01:11:37;;;;;;;5.00;3.05;;;;;;;5.54;64.11;98136.94;1790903;79;21063;-73
2021/05/08 01:14:04;;;;;;;4.97;3.37;;;;;;;5.49;64.22;98145.75;1778123;79;21151;-74
2021/05/08 01:16:30;;;;;;;4.40;3.40;;;;;;;5.47;64.18;98156.44;1790866;79;21185;-74
2021/05/08 01:18:57;;;;;;;5.47;3.45;;;;;;;5.45;64.07;98157.22;1802749;79;21135;-74
2021/05/08 01:21:23;;;;;;;6.92;3.87;;;;;;;5.38;64.46;98160.05;1790988;79;21478;-74
2021/05/08 01:23:50;;;;;;;4.90;3.33;;;;;;;5.40;64.06;98161.19;1802686;79;21247;-74
2021/05/08 01:26:16;;;;;;;6.08;4.45;;;;;;;5.37;64.42;98167.84;1790891;79;21109;-74
2021/05/08 01:28:43;;;;;;;6.47;4.17;;;;;;;5.35;64.52;98162.70;1802750;79;21115;-74
2021/05/08 01:31:09;;;;;;;6.35;3.75;;;;;;;5.36;64.34;98162.98;1764177;79;21026;-73
2021/05/08 01:33:36;;;;;;;7.05;3.90;;;;;;;5.37;64.21;98159.24;1802716;79;21096;-73
2021/05/08 01:36:02;;;;;;;6.87;3.67;;;;;;;5.38;64.38;98172.99;1790924;80;21393;-74
2021/05/08 01:38:30;;;;;;;5.87;3.85;;;;;;;5.41;64.43;98170.88;1802589;79;21174;-74
2021/05/08 01:41:08;;;;;;;5.60;3.60;;;;;;;5.38;64.94;98166.27;1790880;80;21117;-74
2021/05/08 01:43:35;;;;;;;8.15;3.80;;;;;;;5.40;65.13;98167.90;1802687;79;21076;-74
2021/05/08 01:46:01;;;;;;;5.00;2.98;;;;;;;5.45;65.16;98175.50;1791005;80;21431;-73
2021/05/08 01:48:28;;;;;;;5.22;3.35;;;;;;;5.49;65.19;98176.66;1802762;79;22186;-74
2021/05/08 01:50:54;;;;;;;6.62;3.92;;;;;;;5.51;64.96;98182.60;1791054;80;21110;-74
2021/05/08 01:53:21;;;;;;;6.83;3.40;;;;;;;5.53;64.73;98185.05;1802828;79;21023;-73
2021/05/08 01:55:48;;;;;;;4.75;3.33;;;;;;;5.51;64.48;98191.20;1791002;80;21443;-74
2021/05/08 01:58:14;;;;;;;4.30;2.47;;;;;;;5.51;64.34;98192.54;1802874;79;21088;-73
2021/05/08 02:00:45;;;;;;;5.08;3.00;;;;;;;5.56;64.17;98188.61;1786656;78;22035;-74
2021/05/08 02:03:12;;;;;;;4.95;3.08;;;;;;;5.51;64.25;98189.33;1787436;80;21495;-74
2021/05/08 02:05:39;;;;;;;5.53;3.08;;;;;;;5.48;64.35;98183.09;1817933;79;21028;-73
2021/05/08 02:08:07;;;;;;;4.50;3.10;;;;;;;5.51;64.14;98193.36;1787468;80;21099;-74
2021/05/08 02:10:35;;;;;;;4.13;3.23;;;;;;;5.50;64.29;98194.41;1818200;79;21079;-74
2021/05/08 02:13:03;;;;;;;4.87;3.05;;;;;;;5.49;64.10;98195.48;1787461;80;21197;-73
2021/05/08 02:15:29;;;;;;;5.05;3.60;;;;;;;5.50;64.00;98207.86;1817781;78;21130;-74
2021/05/08 02:17:55;;;;;;;6.15;3.12;;;;;;;5.47;64.13;98206.16;1787378;80;21109;-74
2021/05/08 02:20:27;;;;;;;4.95;3.22;;;;;;;5.47;64.17;98205.66;1817894;79;21059;-74
2021/05/08 02:22:55;;;;;;;5.58;3.58;;;;;;;5.45;64.27;98210.97;1785746;79;21099;-74
2021/05/08 02:25:21;;;;;;;4.78;3.20;;;;;;;5.45;64.22;98209.63;1787364;80;21940;-73
2021/05/08 02:27:48;;;;;;;6.53;3.87;;;;;;;5.43;64.20;98201.00;1817829;78;21341;-74
2021/05/08 02:30:19;;;;;;;5.35;3.42;;;;;;;5.42;64.28;98205.56;1785731;80;21110;-74
2021/05/08 02:32:45;;;;;;;5.40;3.35;;;;;;;5.46;64.68;98205.34;1760599;80;21115;-74
2021/05/08 02:35:13;;;;;;;6.15;3.47;;;;;;;5.52;64.81;98204.39;1818021;79;21488;-74
2021/05/08 02:37:39;;;;;;;4.62;3.35;;;;;;;5.58;65.14;98211.49;1787329;80;21379;-74
2021/05/08 02:40:11;;;;;;;7.58;3.75;;;;;;;5.61;64.92;98220.94;1817860;78;21103;-74
2021/05/08 02:42:38;;;;;;;5.55;3.27;;;;;;;5.65;64.85;98210.00;1787418;80;21059;-74
2021/05/08 02:45:06;;;;;;;7.40;3.62;;;;;;;5.64;64.61;98219.94;1790506;79;21106;-74
2021/05/08 02:47:33;;;;;;;5.85;4.10;;;;;;;5.60;64.62;98219.31;1815667;79;21110;-74
2021/05/08 02:49:59;;;;;;;7.28;4.08;;;;;;;5.60;64.65;98225.50;1801456;79;21203;-74
2021/05/08 02:52:25;;;;;;;6.70;4.87;;;;;;;5.60;64.49;98228.72;1801341;79;21110;-74
2021/05/08 02:54:51;;;;;;;6.50;4.12;;;;;;;5.53;65.08;98234.77;1817902;79;21027;-74
2021/05/08 02:57:17;;;;;;;9.78;5.33;;;;;;;5.55;64.74;98240.72;1787449;80;21047;-74
2021/05/08 02:59:43;;;;;;;5.65;4.20;;;;;;;5.54;64.59;98235.87;1817596;78;21044;-74
2021/05/08 03:02:10;;;;;;;9.03;6.55;;;;;;;5.55;64.48;98233.99;1817288;79;21254;-74
2021/05/08 03:04:36;;;;;;;6.33;4.28;;;;;;;5.54;64.47;98236.39;1821023;78;21552;-74
2021/05/08 03:07:02;;;;;;;6.62;4.78;;;;;;;5.53;64.48;98232.08;1817312;78;21178;-74
2021/05/08 03:09:30;;;;;;;5.17;4.50;;;;;;;5.53;64.38;98236.93;1821090;78;21547;-74
2021/05/08 03:11:57;;;;;;;5.53;3.95;;;;;;;5.58;64.32;98241.06;1817325;79;21118;-74
2021/05/08 03:14:23;;;;;;;7.65;4.33;;;;;;;5.57;64.29;98240.78;1821110;78;22043;-74
2021/05/08 03:16:49;;;;;;;5.97;3.90;;;;;;;5.55;64.33;98248.25;1817230;79;21075;-74
2021/05/08 03:19:16;;;;;;;7.58;4.80;;;;;;;5.60;64.61;98247.53;1821165;78;21154;-74
2021/05/08 03:21:42;;;;;;;6.08;3.98;;;;;;;5.57;64.69;98251.53;1817256;79;21197;-74
2021/05/08 03:24:09;;;;;;;8.25;5.17;;;;;;;5.61;65.00;98255.89;1821214;78;21099;-74
2021/05/08 03:26:36;;;;;;;6.00;3.50;;;;;;;5.64;65.00;98254.89;1787870;79;21056;-74
2021/05/08 03:29:03;;;;;;;9.08;4.20;;;;;;;5.68;64.97;98262.46;1821097;78;21174;-74
2021/05/08 03:31:30;;;;;;;6.30;4.05;;;;;;;5.72;64.90;98268.44;1817323;79;21607;-74
2021/05/08 03:33:56;;;;;;;9.48;4.95;;;;;;;5.75;64.66;98264.48;1820987;78;21515;-74
2021/05/08 03:36:22;;;;;;;7.45;4.50;;;;;;;5.73;64.74;98263.37;1817229;79;21150;-74
2021/05/08 03:38:48;;;;;;;6.10;4.20;;;;;;;5.72;64.69;98269.78;1821129;78;21199;-74
2021/05/08 03:41:14;;;;;;;6.47;4.15;;;;;;;5.72;64.61;98279.73;1817326;78;21125;-74
2021/05/08 03:43:40;;;;;;;9.88;5.22;;;;;;;5.72;64.63;98275.70;1821022;78;21170;-74
2021/05/08 03:46:06;;;;;;;6.92;5.42;;;;;;;5.72;64.50;98277.04;1817298;79;21086;-74
2021/05/08 03:48:32;;;;;;;6.42;4.87;;;;;;;5.70;65.05;98289.39;1821162;78;21574;-74
2021/05/08 03:50:58;;;;;;;7.70;4.70;;;;;;;5.64;65.14;98293.87;1817257;79;22082;-74
2021/05/08 03:53:25;;;;;;;7.55;4.50;;;;;;;5.63;64.79;98287.37;1820923;78;21119;-74
2021/05/08 03:55:51;;;;;;;7.40;5.37;;;;;;;5.62;65.01;98294.63;1817213;79;21047;-74
2021/05/08 03:58:25;;;;;;;7.42;5.12;;;;;;;5.59;64.85;98296.98;1821162;78;21020;-74
2021/05/08 04:00:49;;;;;;;9.70;5.33;;;;;;;5.66;65.02;98300.34;1818732;78;21023;-74
2021/05/08 04:03:15;;;;;;;6.87;4.20;;;;;;;5.72;65.35;98297.20;1824207;78;21266;-74
2021/05/08 04:05:41;;;;;;;15.95;9.35;;;;;;;5.78;65.34;98293.03;1793147;78;21527;-74
2021/05/08 04:08:07;;;;;;;14.73;9.73;;;;;;;5.85;65.40;98295.04;1824183;78;21035;-74
2021/05/08 04:10:34;;;;;;;13.90;10.35;;;;;;;5.92;65.26;98303.00;1820377;78;21126;-74
2021/05/08 04:13:00;;;;;;;12.30;9.23;;;;;;;5.97;65.08;98313.01;1824205;78;21019;-74
2021/05/08 04:15:26;;;;;;;7.47;5.08;;;;;;;5.96;64.90;98318.92;1820430;78;21195;-74
2021/05/08 04:17:52;;;;;;;5.70;4.00;;;;;;;5.89;65.60;98317.69;1824106;78;21157;-74
2021/05/08 04:20:18;;;;;;;9.05;6.37;;;;;;;5.89;65.04;98327.64;1820433;78;21023;-74
2021/05/08 04:22:44;;;;;;;10.55;7.00;;;;;;;5.88;64.70;98336.77;1824224;78;21523;-73
2021/05/08 04:25:11;;;;;;;7.00;6.30;;;;;;;5.88;64.47;98338.11;1820470;78;21022;-73
2021/05/08 04:27:37;;;;;;;6.12;3.52;;;;;;;5.88;64.66;98335.42;1824150;78;21204;-74
2021/05/08 04:30:06;;;;;;;8.20;4.67;;;;;;;5.85;64.51;98335.38;1820477;78;21146;-74
2021/05/08 04:32:32;;;;;;;7.65;3.17;;;;;;;5.84;64.34;98340.48;1824296;78;21122;-74
2021/05/08 04:34:58;;;;;;;5.25;2.83;;;;;;;5.84;64.25;98346.39;1820444;78;21162;-74
2021/05/08 04:37:24;;;;;;;5.53;3.10;;;;;;;5.84;64.16;98344.52;1824176;78;21119;-74
2021/05/08 04:39:50;;;;;;;6.62;2.60;;;;;;;5.85;64.26;98344.80;1820358;78;21190;-74
2021/05/08 04:42:16;;;;;;;5.45;2.72;;;;;;;5.90;64.00;98346.78;1824179;78;21504;-74
2021/05/08 04:44:42;;;;;;;5.42;3.27;;;;;;;5.91;64.25;98355.98;1820555;78;21527;-74
2021/05/08 04:47:12;;;;;;;8.78;5.60;;;;;;;5.98;64.30;98347.73;1824140;78;21165;-74
2021/05/08 04:49:37;;;;;;;4.80;3.08;;;;;;;6.08;64.47;98351.97;1820364;78;21465;-74
2021/05/08 04:52:03;;;;;;;3.05;2.27;;;;;;;6.19;64.32;98349.73;1824114;78;21206;-74
2021/05/08 04:54:29;;;;;;;2.80;1.92;;;;;;;6.30;64.21;98351.25;1820376;78;21512;-74
2021/05/08 04:56:55;;;;;;;5.62;2.58;;;;;;;6.44;64.15;98346.66;1824089;78;21120;-74
2021/05/08 04:59:21;;;;;;;5.50;2.80;;;;;;;6.61;63.86;98350.69;1820399;78;21122;-74
2021/05/08 05:01:48;;;;;;;5.55;2.37;;;;;;;6.74;63.08;98348.17;1801974;78;21674;-74
2021/05/08 05:04:14;;;;;;;3.20;2.45;;;;;;;6.84;62.56;98352.92;1790929;80;21528;-74
2021/05/08 05:06:40;;;;;;;4.05;2.50;;;;;;;6.90;62.19;98351.91;1802586;79;21063;-74
2021/05/08 05:09:06;;;;;;;5.42;2.77;;;;;;;6.97;61.97;98357.94;1790949;80;21157;-74
2021/05/08 05:11:32;;;;;;;3.58;2.45;;;;;;;6.97;61.63;98354.71;1802716;79;21580;-74
2021/05/08 05:13:58;;;;;;;8.28;3.70;;;;;;;6.99;61.40;98361.20;1791008;80;21193;-74
2021/05/08 05:16:26;;;;;;;6.97;6.25;;;;;;;6.94;61.29;98360.61;1802715;79;22121;-74
2021/05/08 05:18:52;;;;;;;4.83;2.50;;;;;;;6.93;60.92;98367.06;1790938;80;21117;-74
2021/05/08 05:21:18;;;;;;;6.03;2.33;;;;;;;6.85;61.11;98375.56;1802719;79;21040;-74
2021/05/08 05:23:44;;;;;;;5.08;2.35;;;;;;;6.88;60.72;98371.55;1791060;80;21133;-74
2021/05/08 05:26:10;;;;;;;3.70;2.15;;;;;;;6.83;61.01;98378.20;1802822;79;21417;-74
2021/05/08 05:28:36;;;;;;;6.58;2.90;;;;;;;6.84;60.92;98379.32;1791175;80;22096;-74
2021/05/08 05:31:02;;;;;;;2.95;2.27;;;;;;;6.86;60.89;98380.42;1802802;79;21168;-74
2021/05/08 05:33:28;;;;;;;3.55;2.55;;;;;;;6.89;60.36;98387.99;1791027;79;21133;-74
2021/05/08 05:35:55;;;;;;;4.65;2.90;;;;;;;6.95;60.55;98394.56;1790372;80;21098;-71
2021/05/08 05:38:23;;;;;;;3.12;2.22;;;;;;;7.02;60.44;98391.70;1802844;79;21028;-71
2021/05/08 05:40:54;;;;;;;5.75;2.20;;;;;;;7.11;60.25;98390.22;1790974;80;21499;-71
2021/05/08 05:43:20;;;;;;;4.42;2.90;;;;;;;7.20;60.24;98393.30;1802808;79;21047;-74
2021/05/08 05:45:46;;;;;;;5.05;2.90;;;;;;;7.24;60.14;98394.42;1764524;80;21105;-74
2021/05/08 05:48:13;;;;;;;4.95;2.70;;;;;;;7.26;60.02;98394.48;1802910;79;21131;-74
2021/05/08 05:50:40;;;;;;;4.45;2.35;;;;;;;7.33;59.62;98399.13;1791001;80;21050;-74
2021/05/08 05:53:06;;;;;;;4.30;2.98;;;;;;;7.30;59.87;98398.30;1802917;79;21465;-74
2021/05/08 05:55:33;;;;;;;4.62;3.20;;;;;;;7.39;59.73;98395.16;1791032;80;21605;-74
2021/05/08 05:57:59;;;;;;;4.72;2.98;;;;;;;7.49;59.77;98396.11;1802791;79;21056;-74
2021/05/08 06:00:25;;;;;;;7.40;2.65;;;;;;;7.75;59.36;98403.16;1789629;78;21055;-74
2021/05/08 06:02:51;;;;;;;4.47;1.85;;;;;;;8.04;58.98;98399.19;1787358;80;21096;-74
2021/05/08 06:05:18;;;;;;;5.53;2.20;;;;;;;8.16;58.55;98403.89;1817986;78;21180;-74
2021/05/08 06:07:44;;;;;;;3.50;2.52;;;;;;;8.33;58.49;98406.48;1787401;80;21118;-74
2021/05/08 06:10:12;;;;;;;3.72;2.05;;;;;;;8.47;57.99;98402.34;1817992;78;21189;-74
2021/05/08 06:12:38;;;;;;;5.58;2.40;;;;;;;8.73;57.43;98400.67;1787570;80;21039;-74
2021/05/08 06:15:07;;;;;;;4.12;2.45;;;;;;;8.93;56.06;98400.53;1818052;79;21523;-74
2021/05/08 06:17:34;;;;;;;;;;;;;;;9.10;56.04;98394.43;1789184;80;21102;-74
2021/05/08 06:20:00;;;;;;;4.15;2.65;;;;;;;9.17;55.14;98399.62;1815650;79;20523;-74
2021/05/08 06:22:26;;;;;;;7.35;2.42;;;;;;;9.25;54.29;98403.18;1801458;79;21110;-74
2021/05/08 06:24:52;;;;;;;3.30;2.20;;;;;;;9.22;53.85;98405.03;1801458;79;21208;-74
2021/05/08 06:27:19;;;;;;;10.43;3.87;;;;;;;9.05;54.15;98402.50;1801326;79;21027;-74
2021/05/08 06:29:45;;;;;;;4.40;2.80;;;;;;;9.04;54.65;98402.22;1817833;79;21198;-74
2021/05/08 06:32:11;;;;;;;5.50;2.42;;;;;;;8.94;54.74;98399.45;1785720;79;21130;-74
2021/05/08 06:34:37;;;;;;;5.45;2.50;;;;;;;8.94;55.13;98398.91;1787401;80;21172;-74
2021/05/08 06:37:03;;;;;;;4.80;2.27;;;;;;;8.97;54.96;98399.77;1817874;79;21162;-74
2021/05/08 06:39:29;;;;;;;4.72;2.33;;;;;;;8.81;53.66;98402.62;1760730;80;21166;-74
2021/05/08 06:41:56;;;;;;;6.80;2.27;;;;;;;8.81;53.92;98395.86;1817872;79;21103;-74
2021/05/08 06:44:25;;;;;;;5.45;2.80;;;;;;;8.96;54.56;98402.70;1787280;80;21309;-74
2021/05/08 06:46:52;;;;;;;4.45;3.20;;;;;;;9.11;55.03;98401.46;1817654;79;21102;-74
2021/05/08 06:49:18;;;;;;;5.05;2.80;;;;;;;9.20;54.58;98412.06;1786483;80;21106;-74
2021/05/08 06:51:44;;;;;;;4.92;2.20;;;;;;;9.16;53.91;98416.37;1817988;78;21463;-74
2021/05/08 06:54:10;;;;;;;9.33;2.90;;;;;;;8.98;54.18;98417.61;1787339;80;21232;-74
2021/05/08 06:56:37;;;;;;;5.75;2.65;;;;;;;8.92;54.39;98417.28;1817891;79;21055;-74
2021/05/08 06:59:03;;;;;;;3.17;2.20;;;;;;;8.86;54.23;98417.50;1785730;80;21149;-74
2021/05/08 07:01:29;;;;;;;4.83;2.75;;;;;;;8.76;54.18;98411.48;1805358;78;21228;-74
2021/05/08 07:03:56;;;;;;;3.77;2.02;;;;;;;8.60;53.75;98420.00;1817309;79;21138;-74
2021/05/08 07:06:25;;;;;;;7.00;3.45;;;;;;;8.47;53.63;98423.13;1821052;78;21190;-74
2021/05/08 07:08:52;;;;;;;;;;;;;;;8.52;54.05;98419.11;1819918;78;21139;-74
2021/05/08 07:11:18;;;;;;;3.30;2.45;;;;;;;8.64;53.88;98418.42;1820991;78;20223;-74
2021/05/08 07:13:44;;;;;;;5.17;2.47;;;;;;;9.02;54.02;98415.19;1817448;79;21483;-74
2021/05/08 07:16:10;;;;;;;3.92;2.58;;;;;;;10.04;51.73;98417.05;1821143;78;21392;-74
2021/05/08 07:18:37;;;;;;;5.80;2.10;;;;;;;10.46;51.66;98416.91;1817336;79;21260;-74
2021/05/08 07:21:03;;;;;;;3.08;1.70;;;;;;;10.42;51.40;98421.22;1821050;78;21040;-74
2021/05/08 07:23:29;;;;;;;4.17;2.65;;;;;;;10.00;50.04;98421.36;1817358;79;21135;-73
2021/05/08 07:25:55;;;;;;;3.85;2.10;;;;;;;9.88;50.20;98423.77;1821003;78;21166;-73
2021/05/08 07:28:23;;;;;;;3.70;2.05;;;;;;;9.96;49.57;98430.56;1817307;79;21392;-73
2021/05/08 07:30:52;;;;;;;2.77;2.05;;;;;;;10.25;47.98;98426.06;1821250;78;21126;-73
2021/05/08 07:33:18;;;;;;;3.30;2.50;;;;;;;10.30;49.86;98430.15;1817584;79;21421;-73
2021/05/08 07:35:45;;;;;;;5.30;1.80;;;;;;;11.24;48.98;98424.20;1820933;78;21174;-73
2021/05/08 07:38:11;;;;;;;3.50;2.50;;;;;;;11.90;48.11;98421.06;1817246;79;21075;-73
2021/05/08 07:40:40;;;;;;;3.37;2.02;;;;;;;12.47;47.88;98417.73;1821078;78;21480;-73
2021/05/08 07:43:07;;;;;;;3.10;2.20;;;;;;;13.41;44.81;98413.42;1817467;78;21186;-73
2021/05/08 07:45:34;;;;;;;2.70;1.80;;;;;;;14.04;44.03;98419.50;1820964;78;21111;-73
2021/05/08 07:48:00;;;;;;;4.17;2.05;;;;;;;15.15;44.45;98416.77;1817218;79;21066;-73
2021/05/08 07:50:27;;;;;;;2.85;1.75;;;;;;;16.04;41.21;98407.68;1821017;78;21166;-73
2021/05/08 07:52:54;;;;;;;3.35;1.75;;;;;;;15.28;40.63;98411.88;1817257;79;21503;-73
2021/05/08 07:55:20;;;;;;;7.05;2.10;;;;;;;15.06;41.04;98422.66;1820945;78;21150;-73
2021/05/08 07:57:46;;;;;;;5.25;2.08;;;;;;;14.64;41.21;98415.69;1817086;79;21094;-73
2021/05/08 08:00:15;;;;;;;2.85;1.85;;;;;;;14.82;39.28;98414.59;1821138;78;21194;-73
2021/05/08 08:02:41;;;;;;;2.25;1.42;;;;;;;14.73;38.28;98406.83;1820298;78;21034;-73
2021/05/08 08:05:09;;;;;;;3.08;1.82;;;;;;;15.50;37.19;98413.38;1824154;78;21170;-73
2021/05/08 08:07:35;;;;;;;4.00;1.55;;;;;;;15.95;33.69;98408.70;1820427;78;21122;-73
2021/05/08 08:10:02;;;;;;;3.15;1.42;;;;;;;16.67;35.02;98402.48;1824089;78;21532;-73
2021/05/08 08:12:28;;;;;;;3.92;1.90;;;;;;;17.13;34.83;98398.06;1820383;78;21058;-73
2021/05/08 08:14:54;;;;;;;2.65;1.42;;;;;;;15.71;33.20;98413.01;1824115;78;21154;-73
2021/05/08 08:17:20;;;;;;;3.60;1.92;;;;;;;15.03;35.50;98421.88;1820460;78;21031;-73
2021/05/08 08:19:47;;;;;;;4.62;1.60;;;;;;;14.48;35.59;98429.84;1824249;78;21303;-73
2021/05/08 08:22:15;;;;;;;4.72;1.90;;;;;;;13.42;35.90;98434.94;1820293;78;21090;-73
2021/05/08 08:24:42;;;;;;;3.07;1.80;;;;;;;12.97;36.80;98429.33;1823794;78;21103;-73
2021/05/08 08:27:10;;;;;;;3.98;2.70;;;;;;;13.16;38.11;98424.82;1820337;78;21180;-73
2021/05/08 08:29:36;;;;;;;3.42;1.72;;;;;;;13.15;37.60;98417.73;1824301;78;21099;-73
2021/05/08 08:32:03;;;;;;;5.65;2.00;;;;;;;13.14;37.94;98417.47;1820380;78;21251;-73
2021/05/08 08:34:29;;;;;;;6.85;1.80;;;;;;;12.81;36.90;98429.99;1824142;78;21515;-73
2021/05/08 08:36:55;;;;;;;3.80;1.92;;;;;;;12.19;37.13;98425.25;1820302;78;21098;-73
2021/05/08 08:39:22;;;;;;;5.12;1.98;;;;;;;11.96;38.96;98432.95;1824250;78;21138;-73
2021/05/08 08:41:48;;;;;;;2.58;1.57;;;;;;;11.86;39.30;98431.66;1820384;78;21031;-73
2021/05/08 08:44:14;;;;;;;4.90;1.90;;;;;;;11.96;38.96;98438.39;1824190;78;21186;-73
2021/05/08 08:46:41;;;;;;;2.62;1.70;;;;;;;13.52;36.83;98434.02;1820296;78;21400;-73
2021/05/08 08:49:08;;;;;;;2.92;1.90;;;;;;;14.37;35.33;98431.33;1824175;78;21116;-74
2021/05/08 08:51:34;;;;;;;2.98;1.82;;;;;;;16.12;34.24;98438.95;1820326;78;21058;-73
2021/05/08 08:54:01;;;;;;;5.25;2.22;;;;;;;17.72;32.24;98439.24;1824240;78;21090;-73
2021/05/08 08:56:33;;;;;;;5.60;2.17;;;;;;;16.75;31.97;98431.84;1820247;78;21194;-73
2021/05/08 08:59:06;;;;;;;2.58;1.75;;;;;;;15.89;33.89;98435.32;1824212;78;21055;-73
2021/05/08 09:01:30;;;;;;;3.90;2.10;;;;;;;17.74;31.33;98431.50;1820086;78;21186;-73
2021/05/08 09:03:57;;;;;;;3.95;2.35;;;;;;;19.52;31.21;98435.34;1824169;78;21135;-74
2021/05/08 09:06:24;;;;;;;3.12;2.00;;;;;;;20.81;28.00;98429.72;1820477;78;21507;-74
2021/05/08 09:08:52;;;;;;;2.95;1.65;;;;;;;21.08;26.98;98424.20;1824090;78;21264;-75
2021/05/08 09:11:23;;;;;;;3.17;1.62;;;;;;;21.72;26.84;98428.42;1820389;78;21091;-73
2021/05/08 09:14:21;;;;;;;7.70;2.22;;;;;;;22.46;24.13;98421.16;1824093;78;21071;-73
2021/05/08 09:17:08;;;;;;;4.45;1.52;;;;;;;21.79;25.29;98422.58;1820320;78;21056;-73
2021/05/08 09:19:37;;;;;;;3.17;1.83;;;;;;;20.27;26.36;98427.66;1824522;78;21094;-73
2021/05/08 09:22:38;;;;;;;6.00;1.80;;;;;;;19.51;26.51;98431.78;1820376;78;22147;-73
2021/05/08 09:25:19;;;;;;;2.52;1.47;;;;;;;21.39;25.32;98439.73;1824121;78;21523;-73
2021/05/08 09:27:53;;;;;;;2.67;1.90;;;;;;;21.87;23.28;98429.91;1820329;78;21115;-73
2021/05/08 09:30:26;;;;;;;3.42;1.42;;;;;;;22.28;23.94;98426.71;1824235;78;21487;-73
2021/05/08 09:33:02;;;;;;;5.37;1.50;;;;;;;22.94;24.40;98421.41;1820021;78;21182;-74
2021/05/08 09:35:34;;;;;;;2.08;1.20;;;;;;;21.12;25.56;98427.91;1824116;78;22018;-74
2021/05/08 09:38:13;;;;;;;2.70;1.52;;;;;;;22.78;23.75;98435.93;1820141;78;21038;-74
2021/05/08 09:40:43;;;;;;;4.30;1.35;;;;;;;22.42;22.78;98429.13;1824166;78;21058;-75
2021/05/08 09:43:14;;;;;;;1.98;1.30;;;;;;;22.86;20.69;98426.50;1819619;78;21122;-74
2021/05/08 09:45:43;;;;;;;2.37;1.22;;;;;;;21.67;21.33;98437.13;1796882;78;21528;-73
2021/05/08 09:48:32;;;;;;;3.15;1.72;;;;;;;18.69;22.07;98430.12;1820531;78;21090;-73
2021/05/08 09:51:28;;;;;;;2.52;1.40;;;;;;;17.70;24.38;98429.17;1824088;78;21071;-74
2021/05/08 09:54:12;;;;;;;9.83;1.98;;;;;;;20.25;23.55;98419.48;1820462;78;21098;-73
2021/05/08 09:56:40;;;;;;;2.00;1.60;;;;;;;18.58;22.05;98407.66;1822996;78;21019;-73
2021/05/08 09:59:34;;;;;;;5.62;1.67;;;;;;;17.46;25.32;98416.37;1820530;78;21508;-72
2021/05/08 10:02:10;;;;;;;3.47;1.90;;;;;;;16.34;26.90;98409.52;1814866;78;21456;-73
2021/05/08 10:04:45;;;;;;;5.00;4.05;;;;;;;15.66;28.11;98419.40;1800774;79;21482;-73
2021/05/08 10:07:17;;;;;;;11.43;10.20;;;;;;;15.67;27.73;98414.75;1790997;79;21399;-73
2021/05/08 10:09:45;;;;;;;6.05;4.28;;;;;;;14.92;28.06;98422.61;1802759;79;21540;-74
2021/05/08 10:12:20;;;;;;;8.33;7.57;;;;;;;17.40;24.75;98420.36;1764527;80;21010;-74
2021/05/08 10:14:48;;;;;;;3.02;2.08;;;;;;;16.44;25.74;98407.10;1822682;78;21198;-74
2021/05/08 10:17:19;;;;;;;3.60;2.37;;;;;;;18.73;23.21;98400.34;1802990;79;21151;-73
2021/05/08 10:19:47;;;;;;;6.30;1.98;;;;;;;19.27;24.03;98402.67;1790902;80;21502;-73
2021/05/08 10:22:14;;;;;;;3.12;2.80;;;;;;;17.49;26.19;98398.73;1802947;79;21088;-74
2021/05/08 10:24:43;;;;;;;2.77;1.98;;;;;;;18.21;26.23;98404.40;1791047;80;21157;-73
2021/05/08 10:27:09;;;;;;;3.25;1.85;;;;;;;17.26;26.50;98412.25;1802764;79;21252;-73
2021/05/08 10:29:51;;;;;;;2.98;1.65;;;;;;;16.12;27.54;98408.08;1791059;80;21141;-73
2021/05/08 10:32:19;;;;;;;6.60;3.90;;;;;;;15.16;28.44;98417.02;1802846;79;21039;-73
2021/05/08 10:34:59;;;;;;;5.05;2.60;;;;;;;14.86;28.72;98421.87;1791290;80;21106;-73
2021/05/08 10:37:26;;;;;;;4.20;2.70;;;;;;;14.39;29.37;98421.48;1802769;79;21112;-72
2021/05/08 10:40:02;;;;;;;5.62;2.90;;;;;;;14.14;29.62;98427.28;1791014;80;21191;-72
2021/05/08 10:42:44;;;;;;;4.30;2.58;;;;;;;14.01;29.95;98423.34;1802795;79;21119;-72
2021/05/08 10:45:16;;;;;;;4.05;2.62;;;;;;;14.11;29.83;98424.05;1790637;80;21490;-73
2021/05/08 10:48:00;;;;;;;16.02;2.72;;;;;;;14.07;30.12;98418.10;1802897;79;21125;-73
2021/05/08 10:50:37;;;;;;;12.78;2.95;;;;;;;14.30;30.15;98420.52;1790218;80;21645;-72
2021/05/08 10:53:15;;;;;;;6.28;3.47;;;;;;;14.20;30.26;98421.48;1821141;78;21190;-74
2021/05/08 10:55:59;;;;;;;5.00;4.30;;;;;;;14.87;30.14;98422.15;1803150;79;21485;-72
2021/05/08 10:58:33;;;;;;;9.65;7.95;;;;;;;16.21;29.43;98417.17;1790961;79;21086;-73
2021/05/08 11:01:09;;;;;;;10.63;7.40;;;;;;;16.94;27.81;98418.00;1822756;78;21070;-73
2021/05/08 11:03:49;;;;;;;15.70;10.75;;;;;;;16.23;28.92;98423.95;1846619;77;21122;-72
2021/05/08 11:06:16;;;;;;;5.08;3.17;;;;;;;17.49;27.53;98420.64;1815646;79;21261;-73
2021/05/08 11:08:48;;;;;;;3.72;2.15;;;;;;;18.88;25.82;98419.07;1831747;78;21141;-73
2021/05/08 11:11:22;;;;;;;3.70;2.15;;;;;;;21.04;23.02;98413.06;1814909;79;21110;-73
2021/05/08 11:13:54;;;;;;;4.80;2.42;;;;;;;22.31;20.69;98410.05;1831720;78;21028;-73
2021/05/08 11:16:28;;;;;;;5.45;1.95;;;;;;;24.23;20.88;98411.14;1815556;79;21059;-74
2021/05/08 11:18:59;;;;;;;3.92;1.95;;;;;;;25.29;19.21;98402.12;1831518;78;22038;-74
2021/05/08 11:21:34;;;;;;;11.10;2.47;;;;;;;26.30;18.44;98402.05;1815504;79;21075;-74
2021/05/08 11:24:02;;;;;;;6.15;2.65;;;;;;;26.97;17.74;98399.41;1831708;78;21083;-75
2021/05/08 11:26:33;;;;;;;5.67;1.77;;;;;;;24.95;16.45;98390.77;1815750;79;21107;-74
2021/05/08 11:29:20;;;;;;;8.58;2.25;;;;;;;22.18;19.85;98383.84;1831764;78;21566;-74
2021/05/08 11:31:49;;;;;;;4.10;1.90;;;;;;;20.43;21.99;98390.75;1814718;79;21346;-74
2021/05/08 11:34:25;;;;;;;6.65;2.05;;;;;;;18.84;23.27;98400.25;1831930;78;21126;-74
2021/05/08 11:36:57;;;;;;;2.90;1.62;;;;;;;17.67;24.19;98396.06;1815544;79;21103;-73
2021/05/08 11:39:40;;;;;;;5.37;2.05;;;;;;;17.03;25.11;98405.17;1831827;78;21102;-72
2021/05/08 11:42:14;;;;;;;2.80;2.00;;;;;;;16.60;25.49;98403.70;1814756;79;21064;-73
2021/05/08 11:44:45;;;;;;;3.70;2.25;;;;;;;15.95;26.25;98394.48;1815505;79;21184;-73